createdAt,value
2022-12-31T00:01:19.354Z,92.93
2022-12-31T00:04:22.355Z,116.80
2022-12-31T00:07:25.058Z,174.73
2022-12-31T00:10:28.819Z,76.43
2022-12-31T00:13:32.225Z,75.68
2022-12-31T00:16:38.042Z,125.45
2022-12-31T00:19:40.647Z,57.28
2022-12-31T00:22:43.504Z,92.55
2022-12-31T00:25:46.076Z,108.23
2022-12-31T00:28:49.585Z,153.85
2022-12-31T00:31:52.526Z,50.35
2022-12-31T00:34:55.333Z,91.65
2022-12-31T00:37:58.021Z,85.53
2022-12-31T00:41:01.118Z,58.50
2022-12-31T00:44:04.078Z,45.72
2022-12-31T00:47:06.855Z,48.55
2022-12-31T00:50:09.769Z,59.92
2022-12-31T00:53:12.842Z,54.95
2022-12-31T00:56:19.053Z,113.30
2022-12-31T00:59:21.967Z,49.40
2022-12-31T01:02:24.880Z,46.35
2022-12-31T01:05:28.038Z,69.28
2022-12-31T01:08:31.354Z,26.67
2022-12-31T01:11:34.519Z,44.10
2022-12-31T01:14:37.338Z,47.33
2022-12-31T01:17:40.273Z,52.47
2022-12-31T01:20:43.973Z,44.60
2022-12-31T01:23:46.903Z,59.30
2022-12-31T01:26:51.210Z,44.57
2022-12-31T01:29:54.078Z,67.45
2022-12-31T01:32:56.784Z,113.53
2022-12-31T01:36:07.791Z,64.57
2022-12-31T01:39:11.148Z,92.57
2022-12-31T01:42:13.999Z,70.73
2022-12-31T01:45:16.869Z,83.75
2022-12-31T01:48:24.112Z,122.53
2022-12-31T01:51:28.632Z,42.97
2022-12-31T01:54:35.686Z,68.43
2022-12-31T01:57:38.522Z,125.27
2022-12-31T02:00:42.399Z,115.10
2022-12-31T02:03:45.339Z,114.05
2022-12-31T02:06:55.364Z,67.87
2022-12-31T02:09:58.282Z,84.97
2022-12-31T02:13:01.361Z,123.80
2022-12-31T02:16:21.782Z,74.28
2022-12-31T02:19:46.305Z,95.38
2022-12-31T02:22:54.318Z,46.42
2022-12-31T02:26:27.853Z,90.62
2022-12-31T02:29:51.951Z,122.07
2022-12-31T02:33:33.443Z,102.55
2022-12-31T02:36:40.083Z,112.50
2022-12-31T02:39:43.720Z,69.47
2022-12-31T02:42:51.542Z,64.97
2022-12-31T02:46:31.967Z,123.87
2022-12-31T02:49:56.744Z,101.65
2022-12-31T02:53:14.576Z,109.32
2022-12-31T02:56:52.447Z,52.53
2022-12-31T03:00:20.464Z,98.60
2022-12-31T03:03:23.473Z,79.60
2022-12-31T03:06:26.108Z,101.12
2022-12-31T03:09:28.986Z,79.10
2022-12-31T03:12:48.722Z,198.57
2022-12-31T03:15:51.627Z,224.50
2022-12-31T03:19:12.575Z,111.80
2022-12-31T03:22:27.396Z,181.93
2022-12-31T03:25:41.794Z,143.77
2022-12-31T03:28:48.056Z,165.35
2022-12-31T03:31:50.891Z,116.40
2022-12-31T03:34:54.025Z,101.07
2022-12-31T03:37:56.797Z,80.87
2022-12-31T03:40:59.817Z,116.43
2022-12-31T03:44:02.282Z,128.65
2022-12-31T03:47:05.558Z,120.75
2022-12-31T03:50:09.549Z,167.03
2022-12-31T03:53:12.988Z,206.68
2022-12-31T03:56:15.596Z,160.95
2022-12-31T03:59:18.676Z,212.50
2022-12-31T04:02:28.144Z,104.30
2022-12-31T04:05:32.360Z,182.93
2022-12-31T04:08:35.091Z,89.87
2022-12-31T04:11:38.403Z,173.30
2022-12-31T04:14:41.019Z,207.50
2022-12-31T04:17:43.980Z,122.28
2022-12-31T04:20:46.878Z,105.80
2022-12-31T04:23:49.636Z,156.93
2022-12-31T04:26:52.280Z,106.22
2022-12-31T04:29:55.125Z,190.90
2022-12-31T04:32:57.697Z,167.48
2022-12-31T04:36:01.981Z,125.03
2022-12-31T04:39:04.530Z,72.12
2022-12-31T04:42:07.294Z,79.28
2022-12-31T04:45:10.738Z,127.85
2022-12-31T04:48:13.576Z,89.15
2022-12-31T04:51:16.438Z,101.90
2022-12-31T04:54:19.470Z,84.62
2022-12-31T04:57:22.446Z,152.70
2022-12-31T05:00:25.295Z,127.53
2022-12-31T05:03:27.951Z,59.90
2022-12-31T05:06:30.724Z,76.17
2022-12-31T05:09:33.281Z,82.55
2022-12-31T05:12:36.348Z,80.32
2022-12-31T05:15:39.671Z,60.40
2022-12-31T05:18:42.785Z,77.87
2022-12-31T05:22:05.475Z,70.80
2022-12-31T05:25:08.932Z,54.58
2022-12-31T05:28:11.906Z,99.15
2022-12-31T05:31:14.960Z,73.00
2022-12-31T05:34:17.608Z,25.15
2022-12-31T05:37:20.626Z,59.27
2022-12-31T05:40:23.128Z,66.87
2022-12-31T05:43:25.941Z,48.05
2022-12-31T05:46:28.483Z,43.47
2022-12-31T05:49:31.639Z,74.57
2022-12-31T05:52:34.354Z,37.40
2022-12-31T05:55:37.193Z,31.05
2022-12-31T05:58:39.789Z,24.25
2022-12-31T06:01:42.901Z,34.45
2022-12-31T06:04:45.853Z,26.50
2022-12-31T06:07:48.322Z,40.60
2022-12-31T06:10:51.246Z,51.67
2022-12-31T06:13:53.807Z,34.50
2022-12-31T06:16:56.695Z,25.25
2022-12-31T06:19:59.911Z,32.97
2022-12-31T06:23:02.860Z,23.40
2022-12-31T06:26:05.880Z,27.80
2022-12-31T06:29:10.354Z,32.35
2022-12-31T06:32:12.959Z,40.03
2022-12-31T06:35:16.038Z,31.40
2022-12-31T06:38:18.707Z,35.13
2022-12-31T06:41:21.942Z,43.08
2022-12-31T06:44:24.645Z,36.67
2022-12-31T06:47:27.462Z,37.95
2022-12-31T06:50:30.124Z,47.95
2022-12-31T06:53:33.610Z,29.10
2022-12-31T06:56:36.364Z,61.65
2022-12-31T06:59:39.661Z,44.25
2022-12-31T07:03:14.843Z,34.95
2022-12-31T07:06:29.623Z,50.45
2022-12-31T07:09:40.412Z,40.37
2022-12-31T07:12:52.327Z,58.47
2022-12-31T07:16:22.324Z,52.28
2022-12-31T07:19:28.783Z,42.65
2022-12-31T07:22:31.715Z,98.12
2022-12-31T07:25:35.564Z,40.17
2022-12-31T07:28:41.442Z,48.95
2022-12-31T07:32:26.897Z,59.92
2022-12-31T07:35:35.063Z,37.58
2022-12-31T07:38:54.077Z,24.50
2022-12-31T07:42:17.871Z,37.70
2022-12-31T07:45:25.372Z,109.03
2022-12-31T07:48:29.146Z,113.00
2022-12-31T07:51:32.275Z,93.93
2022-12-31T07:54:35.200Z,79.57
2022-12-31T07:57:51.262Z,30.10
2022-12-31T08:00:56.538Z,28.12
2022-12-31T08:04:02.644Z,38.75
2022-12-31T08:07:20.933Z,31.62
2022-12-31T08:10:23.823Z,30.20
2022-12-31T08:13:26.750Z,73.77
2022-12-31T08:16:30.499Z,29.77
2022-12-31T08:19:33.545Z,23.95
2022-12-31T08:22:42.769Z,26.15
2022-12-31T08:25:51.375Z,24.65
2022-12-31T08:29:00.702Z,28.80
2022-12-31T08:32:12.275Z,27.00
2022-12-31T08:35:45.732Z,23.85
2022-12-31T08:39:08.165Z,24.15
2022-12-31T08:42:31.509Z,30.37
2022-12-31T08:45:47.668Z,33.30
2022-12-31T08:48:50.792Z,33.08
2022-12-31T08:51:53.907Z,30.00
2022-12-31T08:54:57.195Z,33.88
2022-12-31T08:58:34.964Z,48.65
2022-12-31T09:02:07.612Z,41.30
2022-12-31T09:05:34.915Z,39.80
2022-12-31T09:09:06.483Z,37.92
2022-12-31T09:12:11.759Z,39.95
2022-12-31T09:15:17.737Z,39.38
2022-12-31T09:18:20.718Z,40.33
2022-12-31T09:21:23.904Z,41.50
2022-12-31T09:24:26.864Z,38.67
2022-12-31T09:27:47.098Z,38.90
2022-12-31T09:31:06.866Z,34.90
2022-12-31T09:34:32.360Z,35.23
2022-12-31T09:37:49.407Z,30.62
2022-12-31T09:41:01.720Z,32.88
2022-12-31T09:44:33.730Z,33.00
2022-12-31T09:48:08.808Z,33.63
2022-12-31T09:51:21.771Z,32.80
2022-12-31T09:54:28.139Z,36.45
2022-12-31T09:57:42.268Z,29.63
2022-12-31T10:01:19.920Z,34.95
2022-12-31T10:04:51.967Z,37.10
2022-12-31T10:08:15.625Z,32.53
2022-12-31T10:12:12.341Z,34.65
2022-12-31T10:15:36.223Z,40.95
2022-12-31T10:18:44.887Z,37.05
2022-12-31T10:22:11.142Z,48.60
2022-12-31T10:25:51.559Z,45.60
2022-12-31T10:29:27.297Z,38.15
2022-12-31T10:33:14.887Z,40.60
2022-12-31T10:36:32.107Z,34.58
2022-12-31T10:39:34.981Z,44.78
2022-12-31T10:42:43.530Z,43.17
2022-12-31T10:45:58.667Z,39.53
2022-12-31T10:49:11.176Z,43.47
2022-12-31T10:52:50.506Z,47.95
2022-12-31T10:56:17.844Z,48.08
2022-12-31T10:59:58.529Z,44.53
2022-12-31T11:03:58.697Z,43.25
2022-12-31T11:07:20.473Z,45.72
2022-12-31T11:10:43.177Z,43.03
2022-12-31T11:14:21.128Z,48.75
2022-12-31T11:17:29.551Z,43.30
2022-12-31T11:20:44.625Z,46.72
2022-12-31T11:24:07.539Z,48.58
2022-12-31T11:27:13.393Z,52.67
2022-12-31T11:30:21.532Z,46.95
2022-12-31T11:33:40.635Z,43.07
2022-12-31T11:36:51.356Z,44.55
2022-12-31T11:40:06.084Z,35.67
2022-12-31T11:43:31.801Z,39.45
2022-12-31T11:46:56.732Z,38.88
2022-12-31T11:50:21.066Z,43.37
2022-12-31T11:54:10.031Z,39.05
2022-12-31T11:57:20.534Z,40.28
2022-12-31T12:00:25.880Z,47.10
2022-12-31T12:03:29.039Z,44.20
2022-12-31T12:06:32.702Z,41.03
2022-12-31T12:09:35.779Z,47.25
2022-12-31T12:12:40.254Z,46.88
2022-12-31T12:15:49.787Z,50.65
2022-12-31T12:19:07.152Z,45.22
2022-12-31T12:22:12.338Z,44.03
2022-12-31T12:25:21.115Z,43.08
2022-12-31T12:28:26.592Z,39.97
2022-12-31T12:31:29.275Z,45.80
2022-12-31T12:34:40.886Z,52.45
2022-12-31T12:37:45.859Z,43.60
2022-12-31T12:40:58.008Z,48.55
2022-12-31T12:44:08.794Z,45.45
2022-12-31T12:47:16.097Z,50.97
2022-12-31T12:50:24.451Z,53.83
2022-12-31T12:53:42.776Z,52.50
2022-12-31T12:56:55.894Z,50.70
2022-12-31T13:00:18.217Z,45.10
2022-12-31T13:03:33.088Z,44.38
2022-12-31T13:07:14.779Z,43.53
2022-12-31T13:10:43.275Z,41.30
2022-12-31T13:13:49.315Z,38.50
2022-12-31T13:16:54.887Z,31.42
2022-12-31T13:20:26.664Z,39.38
2022-12-31T13:23:39.893Z,42.17
2022-12-31T13:26:58.666Z,41.20
2022-12-31T13:30:07.359Z,39.63
2022-12-31T13:33:20.694Z,42.75
2022-12-31T13:36:25.237Z,38.22
2022-12-31T13:39:36.957Z,45.20
2022-12-31T13:42:44.146Z,38.43
2022-12-31T13:45:50.690Z,48.50
2022-12-31T13:49:05.552Z,41.83
2022-12-31T13:52:14.634Z,39.80
2022-12-31T13:55:23.423Z,39.85
2022-12-31T13:58:49.857Z,38.53
2022-12-31T14:01:58.239Z,40.10
2022-12-31T14:05:16.215Z,41.40
2022-12-31T14:08:18.918Z,41.65
2022-12-31T14:11:31.203Z,44.67
2022-12-31T14:14:42.356Z,40.53
2022-12-31T14:18:00.959Z,42.42
2022-12-31T14:21:12.373Z,42.20
2022-12-31T14:24:44.284Z,36.65
2022-12-31T14:27:47.614Z,38.15
2022-12-31T14:31:05.096Z,42.07
2022-12-31T14:34:22.188Z,40.80
2022-12-31T14:37:45.960Z,39.60
2022-12-31T14:41:07.395Z,47.90
2022-12-31T14:44:28.733Z,48.90
2022-12-31T14:47:36.055Z,40.37
2022-12-31T14:50:40.703Z,40.88
2022-12-31T14:53:53.316Z,31.62
2022-12-31T14:56:56.146Z,34.90
2022-12-31T15:00:00.984Z,32.22
2022-12-31T15:03:15.878Z,30.23
2022-12-31T15:06:25.004Z,36.83
2022-12-31T15:09:43.028Z,45.38
2022-12-31T15:13:01.960Z,51.67
2022-12-31T15:16:38.286Z,46.50
2022-12-31T15:20:16.929Z,46.43
2022-12-31T15:23:26.624Z,47.35
2022-12-31T15:26:31.888Z,46.17
2022-12-31T15:29:41.950Z,44.05
2022-12-31T15:32:47.093Z,45.40
2022-12-31T15:35:55.619Z,40.00
2022-12-31T15:39:42.900Z,36.38
2022-12-31T15:42:52.464Z,35.58
2022-12-31T15:45:56.026Z,40.28
2022-12-31T15:49:25.359Z,45.17
2022-12-31T15:52:32.735Z,44.10
2022-12-31T15:55:48.738Z,73.03
2022-12-31T15:58:55.646Z,67.70
2022-12-31T16:01:58.779Z,46.00
2022-12-31T16:05:01.900Z,51.72
2022-12-31T16:08:04.977Z,48.10
2022-12-31T16:11:08.610Z,58.80
2022-12-31T16:14:19.825Z,54.50
2022-12-31T16:17:30.236Z,57.67
2022-12-31T16:20:34.696Z,59.85
2022-12-31T16:23:42.258Z,66.90
2022-12-31T16:26:49.322Z,67.75
2022-12-31T16:29:58.663Z,71.53
2022-12-31T16:33:06.357Z,60.03
2022-12-31T16:36:23.293Z,54.00
2022-12-31T16:39:31.582Z,43.83
2022-12-31T16:42:42.430Z,41.83
2022-12-31T16:45:46.852Z,38.08
2022-12-31T16:49:16.157Z,36.38
2022-12-31T16:52:34.191Z,34.63
2022-12-31T16:55:37.152Z,33.10
2022-12-31T16:58:45.207Z,29.33
2022-12-31T17:01:49.570Z,32.60
2022-12-31T17:04:56.313Z,31.98
2022-12-31T17:08:18.822Z,31.48
2022-12-31T17:11:39.263Z,36.00
2022-12-31T17:14:51.023Z,39.22
2022-12-31T17:17:58.883Z,41.47
2022-12-31T17:21:08.478Z,47.20
2022-12-31T17:24:12.406Z,48.35
2022-12-31T17:27:15.974Z,49.87
2022-12-31T17:30:40.276Z,45.92
2022-12-31T17:33:43.256Z,36.45
2022-12-31T17:36:52.292Z,44.95
2022-12-31T17:40:48.757Z,44.53
2022-12-31T17:43:31.509Z,42.57
2022-12-31T17:46:39.188Z,43.05
2022-12-31T17:49:45.247Z,41.28
2022-12-31T17:52:48.686Z,42.78
2022-12-31T17:55:52.857Z,36.60
2022-12-31T17:58:55.903Z,41.63
2022-12-31T18:02:00.913Z,39.08
2022-12-31T18:05:14.569Z,43.03
2022-12-31T18:08:17.312Z,42.70
2022-12-31T18:11:22.937Z,37.70
2022-12-31T18:14:25.521Z,41.23
2022-12-31T18:17:29.012Z,43.55
2022-12-31T18:20:32.107Z,43.40
2022-12-31T18:23:41.377Z,88.70
2022-12-31T18:26:44.104Z,59.35
2022-12-31T18:29:47.361Z,56.47
2022-12-31T18:32:50.648Z,57.10
2022-12-31T18:36:10.267Z,51.22
2022-12-31T18:39:13.368Z,46.08
2022-12-31T18:42:18.699Z,50.28
2022-12-31T18:45:21.679Z,45.90
2022-12-31T18:48:24.629Z,50.47
2022-12-31T18:51:32.066Z,42.88
2022-12-31T18:54:35.407Z,43.65
2022-12-31T18:57:38.155Z,48.25
2022-12-31T19:00:41.544Z,46.90
2022-12-31T19:03:44.132Z,43.22
2022-12-31T19:06:48.057Z,45.85
2022-12-31T19:09:54.753Z,44.22
2022-12-31T19:13:01.272Z,44.45
2022-12-31T19:16:04.005Z,40.40
2022-12-31T19:19:08.784Z,48.17
2022-12-31T19:22:15.224Z,44.42
2022-12-31T19:25:21.579Z,40.47
2022-12-31T19:28:26.218Z,39.88
2022-12-31T19:31:29.171Z,42.20
2022-12-31T19:34:32.028Z,44.95
2022-12-31T19:37:34.819Z,43.15
2022-12-31T19:40:37.506Z,41.70
2022-12-31T19:43:40.479Z,48.78
2022-12-31T19:46:43.150Z,44.40
2022-12-31T19:49:46.565Z,42.60
2022-12-31T19:52:50.742Z,40.38
2022-12-31T19:55:53.982Z,44.45
2022-12-31T19:58:56.704Z,46.50
2022-12-31T20:01:59.761Z,49.33
2022-12-31T20:05:02.827Z,49.63
2022-12-31T20:08:05.793Z,59.80
2022-12-31T20:11:14.814Z,59.92
2022-12-31T20:14:17.575Z,52.25
2022-12-31T20:17:20.427Z,55.37
2022-12-31T20:20:23.751Z,55.47
2022-12-31T20:23:26.737Z,50.22
2022-12-31T20:26:29.587Z,50.05
2022-12-31T20:29:33.191Z,47.78
2022-12-31T20:32:36.201Z,50.13
2022-12-31T20:35:39.297Z,44.65
2022-12-31T20:38:42.263Z,43.95
2022-12-31T20:41:45.270Z,60.10
2022-12-31T20:44:47.781Z,74.45
2022-12-31T20:47:51.026Z,56.73
2022-12-31T20:50:57.919Z,48.10
2022-12-31T20:54:06.629Z,44.47
2022-12-31T20:57:09.142Z,42.45
2022-12-31T21:00:14.235Z,47.80
2022-12-31T21:04:02.495Z,41.83
2022-12-31T21:06:43.090Z,43.83
2022-12-31T21:09:45.761Z,50.65
2022-12-31T21:12:53.397Z,46.97
2022-12-31T21:15:56.214Z,51.13
2022-12-31T21:18:59.257Z,40.60
2022-12-31T21:22:01.997Z,41.53
2022-12-31T21:25:05.447Z,38.17
2022-12-31T21:28:08.775Z,33.72
2022-12-31T21:31:13.048Z,35.50
2022-12-31T21:34:15.748Z,35.17
2022-12-31T21:37:18.627Z,33.72
2022-12-31T21:40:22.339Z,39.45
2022-12-31T21:43:25.420Z,31.17
2022-12-31T21:46:28.331Z,29.10
2022-12-31T21:49:31.308Z,30.20
2022-12-31T21:52:35.107Z,32.83
2022-12-31T21:55:57.899Z,32.80
2022-12-31T21:59:18.668Z,29.92
2022-12-31T22:02:40.730Z,31.67
2022-12-31T22:06:12.268Z,27.70
2022-12-31T22:09:15.035Z,34.22
2022-12-31T22:12:17.899Z,29.65
2022-12-31T22:15:20.443Z,36.38
2022-12-31T22:18:23.723Z,29.30
2022-12-31T22:21:26.892Z,30.67
2022-12-31T22:24:29.851Z,36.92
2022-12-31T22:27:32.340Z,38.22
2022-12-31T22:30:35.432Z,36.08
2022-12-31T22:33:38.116Z,40.58
2022-12-31T22:36:40.999Z,35.67
2022-12-31T22:39:45.136Z,36.40
2022-12-31T22:42:48.068Z,38.85
2022-12-31T22:45:50.685Z,38.53
2022-12-31T22:48:56.791Z,37.42
2022-12-31T22:52:02.835Z,35.90
2022-12-31T22:55:09.999Z,34.80
2022-12-31T22:58:12.523Z,36.85
2022-12-31T23:01:19.281Z,38.78
2022-12-31T23:04:21.857Z,35.10
2022-12-31T23:07:24.889Z,30.47
2022-12-31T23:10:46.137Z,32.13
2022-12-31T23:14:07.953Z,28.02
2022-12-31T23:17:35.107Z,25.30
2022-12-31T23:20:57.239Z,30.35
2022-12-31T23:23:59.966Z,63.33
2022-12-31T23:27:03.045Z,48.30
2022-12-31T23:30:06.284Z,44.28
2022-12-31T23:33:21.311Z,51.78
2022-12-31T23:36:23.944Z,42.13
2022-12-31T23:39:26.830Z,36.53
2022-12-31T23:42:29.431Z,36.22
2022-12-31T23:45:33.693Z,39.38
2022-12-31T23:48:36.401Z,35.85
2022-12-31T23:51:40.249Z,31.35
2022-12-31T23:54:42.982Z,34.23
2022-12-31T23:57:45.896Z,38.60
